cubair logo

 

Steve KrogSteve Krog

Availability:

If it's not raining I'm flying!

About Steve:

Born and raised in southwestern Minnesota, Steve "migrated" to Wisconsin in 1982 and continues to reside in Hartford, Wisconsin. He has been interested in airplanes since he was old enough to know what they were, and family friend and mentor Carroll Bressler introduced him to the pleasure of aviation by giving him his first ride when he was 12 years old. Steve has been "hooked on aviation" ever since. He earned his private certificate in 1969 and completed his training in 1972, obtaining commercial and flight instructor certificates as well as instrument and multiengine ratings. Steve retired from and sold his marketing communications firm in early 2007 and established Cub Air Flight LLC, a primary flight school for sport and private pilot students who want to learn in a tailwheel airplane. He also provides tailwheel training for vintage aircraft owners. Steve and his wife, Sharon, who also flies, own several aircraft including a 1941 Piper J-5A Cruiser (currently being restored), a 1938, 1945, and a 1946 Piper J-3, a 1946 Piper PA-12 Super Cruiser, and a 1947 Luscombe 8E. Steve and Sharon have been AirVenture volunteers for well more than 12 years. They also own and manage the Cub Club, the Luscombe Association, and the Taylorcraft Owner's Club, three very active type clubs.

 

Find Us Here!

Hartford Municipal

Airport (KHXF)
4200 Highway U
Hartford, WI 53027

Our Staff

Steve Krog
Jamie Weber

West Bend Weather

[Source: ADDS]
METAR
KETB 231415Z AUTO 22003KT 1 1/2SM BR OVC003 02/02 A3005 RMK AO2 =
TAF

Waukesha Weather

[Source: ADDS]
METAR
KUES 231345Z 19005KT 1 1/2SM BR OVC002 01/01 A3006 =
TAF
KUES 231120Z 2312/2412 18007KT 1 1/2SM -RA BR OVC002 FM231400 20007KT 3SM BR OVC003 FM231600 26011G21KT P6SM BKN005 FM231700 27011G22KT P6SM BKN008 FM231900 27011KT P6SM BKN020 FM232100 27011KT P6SM SCT025 FM232300 27009KT P6SM BKN250 =

Juneau Weather

[Source: ADDS]
METAR
KUNU 231415Z AUTO 21007KT 3/4SM BR OVC003 01/01 A3005 RMK AO2 T00130011 =
TAF

Fond Du Lac Weather

[Source: ADDS]
METAR
KFLD 231423Z AUTO 21008KT 2SM BR OVC005 03/01 A3003 RMK AO2 T00280011 TSNO =
TAF